Time;durP1;ratioP1;P1;durP2;ratioP2;P2;SDS_P1;SDS_P2;PMS_P1;PMS_P2;Temp;Humidity;BMP_temperature;BMP_pressure;BME280_temperature;BME280_humidity;BME280_pressure;Samples;Min_cycle;Max_cycle;Signal;HPM_P1;HPM_P2
2021/08/22 00:01:23;;;;;;;18.80;16.90;;;19.00;99.90;;;;;;5154901;27;20472;-56
2021/08/22 00:03:49;;;;;;;18.10;16.23;;;19.00;99.90;;;;;;5154700;27;20053;-56
2021/08/22 00:06:14;;;;;;;18.33;15.80;;;19.00;99.90;;;;;;5154746;27;20050;-56
2021/08/22 00:08:41;;;;;;;18.58;16.75;;;19.00;99.90;;;;;;5154735;27;20077;-55
2021/08/22 00:11:07;;;;;;;19.98;17.77;;;19.00;99.90;;;;;;5154782;27;20047;-56
2021/08/22 00:13:33;;;;;;;18.33;16.40;;;19.00;99.90;;;;;;5154484;27;20099;-56
2021/08/22 00:16:00;;;;;;;19.05;17.10;;;19.00;99.90;;;;;;5154502;27;20069;-56
2021/08/22 00:18:26;;;;;;;19.10;17.10;;;19.00;99.90;;;;;;5154718;27;20042;-56
2021/08/22 00:20:52;;;;;;;20.05;18.08;;;19.00;99.90;;;;;;5154638;27;20457;-56
2021/08/22 00:23:18;;;;;;;19.40;17.33;;;19.00;99.90;;;;;;5154751;27;20042;-56
2021/08/22 00:25:43;;;;;;;20.13;18.02;;;19.00;99.90;;;;;;5154285;27;20476;-55
2021/08/22 00:28:09;;;;;;;20.55;18.48;;;18.90;99.90;;;;;;5154079;27;20143;-56
2021/08/22 00:30:35;;;;;;;20.38;18.25;;;18.90;99.90;;;;;;5154601;27;20129;-56
2021/08/22 00:33:01;;;;;;;21.73;19.42;;;18.90;99.90;;;;;;5154345;27;20126;-56
2021/08/22 00:35:27;;;;;;;20.45;17.98;;;18.90;99.90;;;;;;5154140;27;20117;-56
2021/08/22 00:37:53;;;;;;;20.70;18.60;;;18.90;99.90;;;;;;5154170;27;20401;-56
2021/08/22 00:40:20;;;;;;;22.52;19.77;;;18.90;99.90;;;;;;5154391;27;20067;-56
2021/08/22 00:42:48;;;;;;;21.50;19.30;;;18.80;99.90;;;;;;5154428;27;20049;-56
2021/08/22 00:45:14;;;;;;;;;;;18.80;99.90;;;;;;5154643;27;20046;-56
2021/08/22 00:47:48;;;;;;;20.65;18.55;;;18.80;99.90;;;;;;5154046;27;19919;-56
2021/08/22 00:50:18;;;;;;;20.27;18.20;;;18.80;99.90;;;;;;5153925;27;20031;-56
2021/08/22 00:52:45;;;;;;;21.27;19.10;;;18.80;99.90;;;;;;5153835;27;20045;-56
2021/08/22 00:55:11;;;;;;;20.83;18.65;;;18.80;99.90;;;;;;5153572;27;20046;-56
2021/08/22 00:57:37;;;;;;;21.30;19.10;;;18.80;99.90;;;;;;5154019;27;20484;-56
2021/08/22 01:00:14;;;;;;;21.58;19.27;;;18.80;99.90;;;;;;5153932;27;20493;-56
2021/08/22 01:03:09;;;;;;;22.67;20.25;;;18.80;99.90;;;;;;5153684;27;20038;-55
2021/08/22 01:05:47;;;;;;;20.38;18.33;;;18.80;99.90;;;;;;5153731;27;20039;-56
2021/08/22 01:08:29;;;;;;;21.40;18.15;;;18.70;99.90;;;;;;5153723;27;20088;-56
2021/08/22 01:11:06;;;;;;;24.00;19.35;;;18.70;99.90;;;;;;5153757;27;20035;-56
2021/08/22 01:13:40;;;;;;;19.88;17.85;;;18.70;99.90;;;;;;5153387;27;20039;-56
2021/08/22 01:16:08;;;;;;;22.05;19.73;;;18.80;99.90;;;;;;5153538;27;20106;-56
2021/08/22 01:18:39;;;;;;;21.60;19.40;;;18.70;99.90;;;;;;5153630;27;20039;-56
2021/08/22 01:21:12;;;;;;;23.33;20.10;;;18.70;99.90;;;;;;5153816;27;20039;-56
2021/08/22 01:23:55;;;;;;;21.58;19.00;;;18.70;99.90;;;;;;5153450;27;20043;-55
2021/08/22 01:26:35;;;;;;;20.27;18.33;;;18.70;99.90;;;;;;5153393;27;20117;-56
2021/08/22 01:29:03;;;;;;;21.20;19.10;;;18.70;99.90;;;;;;5153443;27;20051;-56
2021/08/22 01:31:35;;;;;;;21.98;19.88;;;18.70;99.90;;;;;;5153466;27;20057;-56
2021/08/22 01:34:03;;;;;;;20.85;18.67;;;18.70;99.90;;;;;;5153422;27;20133;-55
2021/08/22 01:36:29;;;;;;;22.83;20.63;;;18.70;99.90;;;;;;5153347;27;20056;-56
2021/08/22 01:38:55;;;;;;;20.73;18.63;;;18.60;99.90;;;;;;5153603;27;20039;-56
2021/08/22 01:41:24;;;;;;;20.98;18.85;;;18.60;99.90;;;;;;5153480;27;20082;-56
2021/08/22 01:43:54;;;;;;;22.70;20.35;;;18.60;99.90;;;;;;5153442;27;20129;-56
2021/08/22 01:46:28;;;;;;;21.38;19.25;;;18.60;99.90;;;;;;5153358;27;20051;-56
2021/08/22 01:48:55;;;;;;;22.25;18.60;;;18.60;99.90;;;;;;5153581;27;20558;-55
2021/08/22 01:51:25;;;;;;;23.15;19.67;;;18.50;99.90;;;;;;5153952;27;20046;-56
2021/08/22 01:53:51;;;;;;;23.23;20.92;;;18.60;99.90;;;;;;5153292;27;20126;-55
2021/08/22 01:56:18;;;;;;;20.95;18.70;;;18.50;99.90;;;;;;5153490;27;20150;-56
2021/08/22 01:58:44;;;;;;;20.50;18.60;;;18.60;99.90;;;;;;5153750;27;20470;-56
2021/08/22 02:01:09;;;;;;;20.42;18.33;;;18.60;99.90;;;;;;5153379;27;20364;-56
2021/08/22 02:03:45;;;;;;;21.05;19.00;;;18.60;99.90;;;;;;5152997;27;20111;-56
2021/08/22 02:06:27;;;;;;;21.23;18.95;;;18.50;99.90;;;;;;5153525;27;20042;-56
2021/08/22 02:08:58;;;;;;;20.70;18.58;;;18.50;99.90;;;;;;5157484;27;20483;-56
2021/08/22 02:11:36;;;;;;;21.15;19.05;;;18.50;99.90;;;;;;5156956;27;20484;-56
2021/08/22 02:14:05;;;;;;;21.55;19.27;;;18.50;99.90;;;;;;5156843;27;20043;-56
2021/08/22 02:16:32;;;;;;;20.73;18.25;;;18.50;99.90;;;;;;5157107;27;20054;-56
2021/08/22 02:19:02;;;;;;;20.27;18.05;;;18.50;99.90;;;;;;5157212;27;20046;-55
2021/08/22 02:21:29;;;;;;;20.85;18.67;;;18.50;99.90;;;;;;5157201;27;20190;-56
2021/08/22 02:23:57;;;;;;;20.33;18.23;;;18.50;99.90;;;;;;5157226;27;20370;-56
2021/08/22 02:26:23;;;;;;;23.60;19.55;;;18.50;99.90;;;;;;5157221;27;20427;-55
2021/08/22 02:29:08;;;;;;;21.25;19.05;;;18.60;99.90;;;;;;5156991;27;20146;-55
2021/08/22 02:31:34;;;;;;;22.92;19.98;;;18.60;99.90;;;;;;5156772;27;20047;-56
2021/08/22 02:34:00;;;;;;;24.55;22.08;;;18.60;99.90;;;;;;5156586;27;20103;-55
2021/08/22 02:36:27;;;;;;;25.00;22.42;;;18.50;99.90;;;;;;5156585;27;20133;-55
2021/08/22 02:38:53;;;;;;;23.65;21.17;;;18.50;99.90;;;;;;5156407;27;20038;-56
2021/08/22 02:41:19;;;;;;;24.17;21.40;;;18.50;99.90;;;;;;5156383;27;20042;-55
2021/08/22 02:43:45;;;;;;;24.52;21.70;;;18.60;99.90;;;;;;5137600;27;20065;-56
2021/08/22 02:46:11;;;;;;;24.92;22.27;;;18.50;99.90;;;;;;5156192;27;20448;-56
2021/08/22 02:48:37;;;;;;;24.98;22.55;;;18.50;99.90;;;;;;5137958;27;20083;-56
2021/08/22 02:51:03;;;;;;;24.15;21.65;;;18.50;99.90;;;;;;5156310;27;20059;-56
2021/08/22 02:53:29;;;;;;;25.83;23.13;;;18.50;99.90;;;;;;5156119;27;20034;-56
2021/08/22 02:55:56;;;;;;;24.67;22.27;;;18.50;99.90;;;;;;5156101;27;20034;-56
2021/08/22 02:58:22;;;;;;;25.95;22.00;;;18.50;99.90;;;;;;5156012;27;20095;-55
2021/08/22 03:00:48;;;;;;;24.42;21.92;;;18.40;99.90;;;;;;5155990;27;20488;-56
2021/08/22 03:03:14;;;;;;;23.95;21.35;;;18.50;99.90;;;;;;5156134;27;20064;-56
2021/08/22 03:05:40;;;;;;;26.35;21.73;;;18.60;99.90;;;;;;5155791;27;20047;-56
2021/08/22 03:08:06;;;;;;;24.63;22.15;;;18.60;99.90;;;;;;5155922;27;20072;-56
2021/08/22 03:10:31;;;;;;;23.20;20.85;;;18.50;99.90;;;;;;5155808;27;20049;-56
2021/08/22 03:12:58;;;;;;;25.58;22.88;;;18.60;99.90;;;;;;5156107;27;20046;-56
2021/08/22 03:15:24;;;;;;;26.33;23.27;;;18.50;99.90;;;;;;5155688;27;20071;-56
2021/08/22 03:17:49;;;;;;;25.38;22.77;;;18.40;99.90;;;;;;5155617;27;20058;-57
2021/08/22 03:20:16;;;;;;;29.35;25.52;;;18.50;99.90;;;;;;5155819;27;20718;-56
2021/08/22 03:22:43;;;;;;;26.67;23.92;;;18.40;99.90;;;;;;5155689;27;20069;-57
2021/08/22 03:25:10;;;;;;;27.40;24.60;;;18.40;99.90;;;;;;5156290;27;20046;-57
2021/08/22 03:27:36;;;;;;;28.55;25.25;;;18.40;99.90;;;;;;5155758;27;20043;-56
2021/08/22 03:30:02;;;;;;;27.83;24.27;;;18.40;99.90;;;;;;5155369;27;20483;-57
2021/08/22 03:32:28;;;;;;;26.05;23.27;;;18.40;99.90;;;;;;5155527;27;20042;-56
2021/08/22 03:34:55;;;;;;;26.00;23.40;;;18.30;99.90;;;;;;5155418;27;20141;-56
2021/08/22 03:37:21;;;;;;;27.98;25.15;;;18.30;99.90;;;;;;5155521;27;20035;-57
2021/08/22 03:39:47;;;;;;;25.85;23.20;;;18.40;99.90;;;;;;5155212;27;20070;-57
2021/08/22 03:42:13;;;;;;;27.75;24.85;;;18.40;99.90;;;;;;5155332;27;20046;-56
2021/08/22 03:44:39;;;;;;;28.65;25.67;;;18.30;99.90;;;;;;5155201;27;20050;-56
2021/08/22 03:47:04;;;;;;;28.35;25.48;;;18.30;99.90;;;;;;5155262;27;20051;-56
2021/08/22 03:49:30;;;;;;;28.05;25.05;;;18.30;99.90;;;;;;5155027;27;20553;-56
2021/08/22 03:51:57;;;;;;;32.17;26.90;;;18.20;99.90;;;;;;5155043;27;20054;-56
2021/08/22 03:54:22;;;;;;;28.52;25.42;;;18.10;99.90;;;;;;5154848;27;20045;-56
2021/08/22 03:56:48;;;;;;;29.40;25.85;;;18.20;99.90;;;;;;5155211;27;20050;-56
2021/08/22 03:59:14;;;;;;;31.52;25.45;;;18.20;99.90;;;;;;5154954;27;20042;-56
2021/08/22 04:01:39;;;;;;;28.25;24.95;;;18.20;99.90;;;;;;5155027;27;20087;-56
2021/08/22 04:04:06;;;;;;;26.83;24.08;;;18.20;99.90;;;;;;5154792;27;20434;-56
2021/08/22 04:06:33;;;;;;;29.55;26.00;;;18.20;99.90;;;;;;5155087;27;20371;-56
2021/08/22 04:09:00;;;;;;;28.23;25.33;;;18.20;99.90;;;;;;5154913;27;20091;-56
2021/08/22 04:11:27;;;;;;;30.02;25.95;;;18.20;99.90;;;;;;5154774;27;20063;-56
2021/08/22 04:13:54;;;;;;;29.70;26.70;;;18.20;99.90;;;;;;5154745;27;20047;-56
2021/08/22 04:16:19;;;;;;;29.20;25.92;;;18.10;99.90;;;;;;5154660;27;20042;-56
2021/08/22 04:18:45;;;;;;;30.85;27.15;;;18.20;99.90;;;;;;5154584;27;20046;-56
2021/08/22 04:21:11;;;;;;;30.30;27.20;;;18.20;99.90;;;;;;5154767;27;20066;-56
2021/08/22 04:23:38;;;;;;;28.30;25.42;;;18.20;99.90;;;;;;5154729;27;20039;-56
2021/08/22 04:26:06;;;;;;;30.60;27.25;;;18.20;99.90;;;;;;5154758;27;20074;-56
2021/08/22 04:28:32;;;;;;;35.13;30.37;;;18.20;99.90;;;;;;5154402;27;20054;-56
2021/08/22 04:30:57;;;;;;;37.70;31.40;;;18.20;99.90;;;;;;5154189;27;20633;-56
2021/08/22 04:33:23;;;;;;;31.08;27.88;;;18.20;99.90;;;;;;5154350;27;20492;-56
2021/08/22 04:35:49;;;;;;;34.58;29.85;;;18.20;99.90;;;;;;5154171;27;20464;-56
2021/08/22 04:38:14;;;;;;;36.13;31.75;;;18.20;99.90;;;;;;5154187;27;20070;-56
2021/08/22 04:40:40;;;;;;;34.97;28.15;;;18.10;99.90;;;;;;5154265;27;20039;-56
2021/08/22 04:43:06;;;;;;;32.10;28.23;;;18.10;99.90;;;;;;5154212;27;20035;-56
2021/08/22 04:45:32;;;;;;;33.35;29.77;;;18.10;99.90;;;;;;5154328;27;20043;-56
2021/08/22 04:47:58;;;;;;;34.03;30.15;;;18.20;99.90;;;;;;5153960;27;20066;-56
2021/08/22 04:50:24;;;;;;;41.58;33.17;;;18.20;99.90;;;;;;5153865;27;20066;-56
2021/08/22 04:52:50;;;;;;;32.28;28.77;;;18.10;99.90;;;;;;5153868;27;20043;-56
2021/08/22 04:55:16;;;;;;;38.03;31.98;;;18.20;99.90;;;;;;5153952;27;20066;-56
2021/08/22 04:57:41;;;;;;;40.03;34.30;;;18.10;99.90;;;;;;5154139;27;20453;-56
2021/08/22 05:00:08;;;;;;;31.40;25.75;;;18.10;99.90;;;;;;5153703;27;20469;-56
2021/08/22 05:02:33;;;;;;;32.13;28.05;;;18.00;99.90;;;;;;5153751;27;20519;-56
2021/08/22 05:04:59;;;;;;;33.15;29.65;;;18.00;99.90;;;;;;5153662;27;20081;-56
2021/08/22 05:07:25;;;;;;;32.42;28.45;;;18.10;99.90;;;;;;5153838;27;20047;-55
2021/08/22 05:09:51;;;;;;;39.55;29.67;;;18.10;99.90;;;;;;5153815;27;20054;-55
2021/08/22 05:12:17;;;;;;;31.85;27.42;;;18.10;99.90;;;;;;5153665;27;20046;-56
2021/08/22 05:14:43;;;;;;;34.63;31.00;;;18.00;99.90;;;;;;5153836;27;20051;-55
2021/08/22 05:17:09;;;;;;;34.88;30.52;;;18.00;99.90;;;;;;5153678;27;20463;-56
2021/08/22 05:19:36;;;;;;;35.95;31.38;;;18.00;99.90;;;;;;5153603;27;20043;-55
2021/08/22 05:22:02;;;;;;;29.02;26.02;;;17.90;99.90;;;;;;5153795;27;20043;-56
2021/08/22 05:24:29;;;;;;;37.15;32.83;;;17.80;99.90;;;;;;5153415;27;20041;-55
2021/08/22 05:26:55;;;;;;;31.13;27.85;;;18.00;99.90;;;;;;5153588;27;20070;-56
2021/08/22 05:29:21;;;;;;;36.10;32.35;;;17.80;99.90;;;;;;5153299;27;20050;-55
2021/08/22 05:31:47;;;;;;;36.53;31.35;;;17.90;99.90;;;;;;5153321;27;20038;-56
2021/08/22 05:34:13;;;;;;;34.42;30.85;;;17.80;99.90;;;;;;5153163;27;20054;-56
2021/08/22 05:36:38;;;;;;;35.92;31.00;;;17.80;99.90;;;;;;5153582;27;20121;-56
2021/08/22 05:39:05;;;;;;;32.08;28.75;;;17.70;99.90;;;;;;5153427;27;20164;-55
2021/08/22 05:41:31;;;;;;;32.53;29.20;;;17.70;99.90;;;;;;5156129;27;20046;-56
2021/08/22 05:43:57;;;;;;;33.40;29.90;;;17.60;99.90;;;;;;5157541;27;20047;-56
2021/08/22 05:46:22;;;;;;;35.28;31.40;;;17.60;99.90;;;;;;5157585;27;20038;-56
2021/08/22 05:48:48;;;;;;;35.67;31.50;;;17.60;99.90;;;;;;5157402;27;20121;-56
2021/08/22 05:51:16;;;;;;;36.38;32.50;;;17.60;99.90;;;;;;5157739;27;20174;-56
2021/08/22 05:53:45;;;;;;;30.35;27.35;;;17.60;99.90;;;;;;5157313;27;20495;-56
2021/08/22 05:56:11;;;;;;;;;;;17.60;99.90;;;;;;5157795;27;20047;-56
2021/08/22 05:58:37;;;;;;;34.38;30.77;;;17.60;99.90;;;;;;5157319;27;19922;-55
2021/08/22 06:01:04;;;;;;;33.78;30.10;;;17.50;99.90;;;;;;5157279;27;20038;-56
2021/08/22 06:03:30;;;;;;;32.28;29.13;;;17.50;99.90;;;;;;5157352;27;20033;-57
2021/08/22 06:05:55;;;;;;;33.00;29.50;;;17.50;99.90;;;;;;5157293;27;20474;-56
2021/08/22 06:08:21;;;;;;;31.00;27.92;;;17.50;99.90;;;;;;5157180;27;20042;-56
2021/08/22 06:10:47;;;;;;;32.95;29.35;;;17.50;99.90;;;;;;5156990;27;20115;-55
2021/08/22 06:13:14;;;;;;;35.92;30.52;;;17.50;99.90;;;;;;5157099;27;20081;-56
2021/08/22 06:15:40;;;;;;;35.03;30.52;;;17.50;99.90;;;;;;5156806;27;20066;-56
2021/08/22 06:18:10;;;;;;;32.35;28.92;;;17.50;99.90;;;;;;5156840;27;20490;-56
2021/08/22 06:20:36;;;;;;;31.73;28.55;;;17.50;99.90;;;;;;5157019;27;20039;-56
2021/08/22 06:23:03;;;;;;;33.92;30.33;;;17.50;99.90;;;;;;5157007;27;20039;-57
2021/08/22 06:25:29;;;;;;;31.60;28.23;;;17.50;99.90;;;;;;5156851;27;20107;-55
2021/08/22 06:27:54;;;;;;;35.17;29.05;;;17.50;99.90;;;;;;5156592;27;20043;-56
2021/08/22 06:30:20;;;;;;;38.90;30.83;;;17.50;99.90;;;;;;5156545;27;20039;-57
2021/08/22 06:32:46;;;;;;;30.25;27.15;;;17.40;99.90;;;;;;5157138;27;20062;-57
2021/08/22 06:35:12;;;;;;;34.38;29.08;;;17.40;99.90;;;;;;5156926;27;20034;-56
2021/08/22 06:37:38;;;;;;;32.63;29.23;;;17.40;99.90;;;;;;5156490;27;20050;-56
2021/08/22 06:40:05;;;;;;;37.72;30.38;;;17.40;99.90;;;;;;5156474;27;20066;-56
2021/08/22 06:42:33;;;;;;;27.25;24.65;;;17.40;99.90;;;;;;5156582;27;20039;-56
2021/08/22 06:44:59;;;;;;;26.13;23.63;;;17.40;99.90;;;;;;5156389;27;20050;-56
2021/08/22 06:47:25;;;;;;;29.38;25.55;;;17.40;99.90;;;;;;5156457;27;20050;-56
2021/08/22 06:49:50;;;;;;;27.67;24.77;;;17.40;99.90;;;;;;5156534;27;20035;-57
2021/08/22 06:52:16;;;;;;;23.75;21.63;;;17.40;99.90;;;;;;5137217;27;20043;-57
2021/08/22 06:54:43;;;;;;;23.63;21.05;;;17.30;99.90;;;;;;5155992;27;20472;-57
2021/08/22 06:57:11;;;;;;;24.83;22.45;;;17.30;99.90;;;;;;5156172;27;20053;-57
2021/08/22 06:59:38;;;;;;;25.77;23.10;;;17.30;99.90;;;;;;5156120;27;20145;-56
2021/08/22 07:02:04;;;;;;;23.17;20.77;;;17.20;99.90;;;;;;5156263;27;20042;-56
2021/08/22 07:04:30;;;;;;;24.30;22.00;;;17.20;99.90;;;;;;5155863;27;20487;-56
2021/08/22 07:06:55;;;;;;;22.48;20.27;;;17.30;99.90;;;;;;5156064;27;20106;-56
2021/08/22 07:09:21;;;;;;;20.90;18.75;;;17.20;99.90;;;;;;5155905;27;20057;-57
2021/08/22 07:11:47;;;;;;;19.45;17.38;;;17.20;99.90;;;;;;5155856;27;20392;-57
2021/08/22 07:14:15;;;;;;;19.50;16.80;;;17.20;99.90;;;;;;5155777;27;20498;-56
2021/08/22 07:16:41;;;;;;;19.92;16.90;;;17.20;99.90;;;;;;5155937;27;20118;-56
2021/08/22 07:19:07;;;;;;;17.23;15.52;;;17.20;99.90;;;;;;5155736;27;20487;-56
2021/08/22 07:21:34;;;;;;;17.88;16.13;;;17.20;99.90;;;;;;5136744;27;20054;-57
2021/08/22 07:23:59;;;;;;;18.95;16.98;;;17.20;99.90;;;;;;5155679;27;20129;-57
2021/08/22 07:26:25;;;;;;;17.45;15.68;;;17.20;99.90;;;;;;5155567;27;20130;-57
2021/08/22 07:28:51;;;;;;;19.50;16.52;;;17.20;99.90;;;;;;5155461;27;20384;-56
2021/08/22 07:31:17;;;;;;;17.60;15.90;;;17.20;99.90;;;;;;5155751;27;20053;-56
2021/08/22 07:33:45;;;;;;;18.67;16.63;;;17.30;99.90;;;;;;5155599;27;20464;-56
2021/08/22 07:36:11;;;;;;;16.50;14.82;;;17.30;99.90;;;;;;5155486;27;20039;-56
2021/08/22 07:38:37;;;;;;;18.48;16.60;;;17.30;99.90;;;;;;5155248;27;20039;-56
2021/08/22 07:41:07;;;;;;;20.27;17.98;;;17.40;99.90;;;;;;5155333;27;20377;-56
2021/08/22 07:43:33;;;;;;;18.50;16.70;;;17.40;99.90;;;;;;5155253;27;20038;-56
2021/08/22 07:46:01;;;;;;;19.70;17.70;;;17.30;99.90;;;;;;5155293;27;20476;-55
2021/08/22 07:48:26;;;;;;;17.90;16.15;;;17.40;99.90;;;;;;5155094;27;20319;-57
2021/08/22 07:50:52;;;;;;;20.33;18.13;;;17.40;99.90;;;;;;5155176;27;20050;-57
2021/08/22 07:53:18;;;;;;;18.98;17.08;;;17.40;99.90;;;;;;5154937;27;20404;-57
2021/08/22 07:55:45;;;;;;;18.80;17.00;;;17.40;99.90;;;;;;5154922;27;20043;-56
2021/08/22 07:58:13;;;;;;;19.52;17.60;;;17.50;99.90;;;;;;5155234;27;20043;-57
2021/08/22 08:00:39;;;;;;;20.38;17.80;;;17.40;99.90;;;;;;5154810;27;20088;-57
2021/08/22 08:03:05;;;;;;;19.77;17.75;;;17.40;99.90;;;;;;5155047;27;20035;-57
2021/08/22 08:05:31;;;;;;;16.30;14.70;;;17.40;99.90;;;;;;5153943;27;20165;-56
2021/08/22 08:07:57;;;;;;;16.75;15.05;;;17.40;99.90;;;;;;5154849;27;20043;-57
2021/08/22 08:10:24;;;;;;;16.42;14.43;;;17.40;99.90;;;;;;5154704;27;20039;-56
2021/08/22 08:12:50;;;;;;;17.70;14.35;;;17.40;99.90;;;;;;5154727;27;20058;-57
2021/08/22 08:15:19;;;;;;;14.60;13.13;;;17.40;99.90;;;;;;5154835;27;20510;-57
2021/08/22 08:17:45;;;;;;;13.85;12.52;;;17.30;99.90;;;;;;5154802;27;20034;-57
2021/08/22 08:20:12;;;;;;;13.02;11.65;;;17.30;99.90;;;;;;5154372;27;20042;-57
2021/08/22 08:22:38;;;;;;;13.65;12.25;;;17.30;99.90;;;;;;5154384;27;20541;-57
2021/08/22 08:25:04;;;;;;;12.90;11.60;;;17.30;99.90;;;;;;5154344;27;20042;-57
2021/08/22 08:27:32;;;;;;;13.25;11.38;;;17.30;99.90;;;;;;5154769;27;20093;-57
2021/08/22 08:29:58;;;;;;;12.20;11.00;;;17.30;99.90;;;;;;5153998;27;20492;-57
2021/08/22 08:32:24;;;;;;;13.18;11.77;;;17.30;99.90;;;;;;5154347;27;20392;-57
2021/08/22 08:34:49;;;;;;;10.05;9.02;;;17.30;99.90;;;;;;5154182;27;20449;-56
2021/08/22 08:37:18;;;;;;;9.63;8.73;;;17.30;99.90;;;;;;5154059;27;20069;-57
2021/08/22 08:39:43;;;;;;;10.32;8.93;;;17.30;99.90;;;;;;5154362;27;20070;-57
2021/08/22 08:42:31;;;;;;;8.48;7.63;;;17.30;99.90;;;;;;5153900;27;20488;-57
2021/08/22 08:44:57;;;;;;;7.43;6.75;;;17.20;99.90;;;;;;5154122;27;20046;-57
2021/08/22 08:47:25;;;;;;;8.63;7.85;;;17.30;99.90;;;;;;5153939;27;20047;-57
2021/08/22 08:49:59;;;;;;;8.32;7.53;;;17.30;99.90;;;;;;5153863;27;20042;-57
2021/08/22 08:52:55;;;;;;;8.60;7.75;;;17.30;99.90;;;;;;5154271;27;20133;-57
2021/08/22 08:55:41;;;;;;;9.02;8.07;;;17.30;99.90;;;;;;5153755;27;20034;-57
2021/08/22 08:58:07;;;;;;;8.27;7.47;;;17.30;99.90;;;;;;5153839;27;20484;-57
2021/08/22 09:00:35;;;;;;;8.82;8.02;;;17.30;99.90;;;;;;5153711;27;20046;-57
2021/08/22 09:03:05;;;;;;;8.40;7.60;;;17.30;99.90;;;;;;5153758;27;20041;-57
2021/08/22 09:05:51;;;;;;;9.93;8.25;;;17.40;99.90;;;;;;5153882;27;20064;-57
2021/08/22 09:08:32;;;;;;;9.43;7.93;;;17.40;99.90;;;;;;5153743;27;20034;-57
2021/08/22 09:11:34;;;;;;;9.88;8.88;;;17.40;99.90;;;;;;5154116;27;20792;-58
2021/08/22 09:14:30;;;;;;;10.60;9.60;;;17.40;99.90;;;;;;5153549;27;20122;-56
2021/08/22 09:17:32;;;;;;;11.60;10.50;;;17.50;99.90;;;;;;5153244;27;20133;-57
2021/08/22 09:20:17;;;;;;;10.50;9.25;;;17.50;99.90;;;;;;5153643;27;20039;-57
2021/08/22 09:23:13;;;;;;;11.18;9.98;;;17.60;99.90;;;;;;5153584;27;20059;-57
2021/08/22 09:26:03;;;;;;;14.02;10.30;;;17.70;99.90;;;;;;5153853;27;20053;-57
2021/08/22 09:29:06;;;;;;;12.35;11.00;;;17.70;99.90;;;;;;5153592;27;20064;-57
2021/08/22 09:32:09;;;;;;;13.77;12.13;;;17.80;99.90;;;;;;5153196;27;20099;-57
2021/08/22 09:34:57;;;;;;;13.25;11.85;;;17.90;99.90;;;;;;5153199;27;20045;-56
2021/08/22 09:38:01;;;;;;;13.50;12.15;;;17.90;99.90;;;;;;5153367;27;20184;-57
2021/08/22 09:40:36;;;;;;;18.38;13.00;;;18.00;99.90;;;;;;5049188;28;20136;-57
2021/08/22 09:43:25;;;;;;;15.43;13.80;;;18.20;99.90;;;;;;5049331;28;20060;-57
2021/08/22 09:46:00;;;;;;;17.35;14.55;;;18.30;99.90;;;;;;5049273;28;20114;-56
2021/08/22 09:49:03;;;;;;;17.45;14.65;;;18.40;99.90;;;;;;5049406;28;20483;-56
2021/08/22 09:51:47;;;;;;;20.45;16.15;;;18.50;99.90;;;;;;5049136;28;20140;-57
2021/08/22 09:54:34;;;;;;;17.55;15.75;;;18.60;99.90;;;;;;5049141;28;20041;-57
2021/08/22 09:57:21;;;;;;;15.77;14.15;;;18.60;99.90;;;;;;5049124;28;20114;-56
2021/08/22 10:00:05;;;;;;;17.60;15.23;;;18.60;99.90;;;;;;5049220;28;20076;-56
2021/08/22 10:02:48;;;;;;;16.90;15.05;;;18.50;99.90;;;;;;5049063;28;20057;-57
2021/08/22 10:05:59;;;;;;;16.63;14.93;;;18.50;99.90;;;;;;5048961;28;20041;-56
2021/08/22 10:08:42;;;;;;;16.73;14.95;;;18.50;99.90;;;;;;5008463;28;20050;-57
2021/08/22 10:11:15;;;;;;;15.77;14.20;;;18.50;99.90;;;;;;5009351;28;20054;-56
2021/08/22 10:13:41;;;;;;;17.52;15.60;;;18.40;99.90;;;;;;5009317;28;20077;-57
2021/08/22 10:16:08;;;;;;;19.27;16.40;;;18.40;99.90;;;;;;5011029;28;20074;-57
2021/08/22 10:18:34;;;;;;;17.70;15.88;;;18.30;99.90;;;;;;5069028;28;20501;-57
2021/08/22 10:21:01;;;;;;;28.50;19.65;;;18.40;99.90;;;;;;5068756;28;20044;-57
2021/08/22 10:23:41;;;;;;;28.23;17.93;;;18.40;99.90;;;;;;5068943;28;20041;-57
2021/08/22 10:26:10;;;;;;;;;;;18.40;99.90;;;;;;5069374;28;20364;-57
2021/08/22 10:28:45;;;;;;;15.15;11.05;;;18.40;99.90;;;;;;5071033;28;19921;-57
2021/08/22 10:31:11;;;;;;;16.63;11.10;;;18.30;99.90;;;;;;5072589;28;20063;-56
2021/08/22 10:34:12;;;;;;;16.55;10.18;;;18.30;99.90;;;;;;5072629;28;20072;-57
2021/08/22 10:36:38;;;;;;;6.88;6.10;;;18.30;99.90;;;;;;5072435;28;20048;-56
2021/08/22 10:41:50;;;;;;;8.75;7.85;;;18.40;99.90;;;;;;5032242;28;20042;-57
2021/08/22 10:44:34;;;;;;;7.15;5.20;;;18.40;99.90;;;;;;5057167;28;20056;-56
2021/08/22 10:47:33;;;;;;;9.02;6.72;;;18.40;99.90;;;;;;5072355;28;20053;-57
2021/08/22 10:49:59;;;;;;;8.00;7.20;;;18.50;99.90;;;;;;5069254;28;20131;-57
2021/08/22 10:52:25;;;;;;;7.57;6.88;;;18.50;99.90;;;;;;5072109;28;20041;-57
2021/08/22 10:55:06;;;;;;;6.88;6.18;;;18.50;99.90;;;;;;5071956;28;20051;-57
2021/08/22 10:57:50;;;;;;;8.15;7.30;;;18.60;99.90;;;;;;5072045;28;20155;-57
2021/08/22 11:00:27;;;;;;;7.53;5.95;;;18.60;99.90;;;;;;5072064;28;20048;-56
2021/08/22 11:03:00;;;;;;;8.48;7.57;;;18.60;99.90;;;;;;5072055;28;20141;-56
2021/08/22 11:05:31;;;;;;;6.75;6.03;;;18.70;99.90;;;;;;5072021;28;20118;-56
2021/08/22 11:08:21;;;;;;;6.47;5.88;;;18.80;99.90;;;;;;5071940;28;20040;-56
2021/08/22 11:10:58;;;;;;;6.07;5.57;;;18.80;99.90;;;;;;5072036;28;20051;-57
2021/08/22 11:13:25;;;;;;;8.60;7.72;;;18.90;99.90;;;;;;5071760;28;20044;-56
2021/08/22 11:15:50;;;;;;;9.10;6.80;;;19.00;99.90;;;;;;5071699;28;20040;-56
2021/08/22 11:18:17;;;;;;;8.38;7.60;;;19.10;99.90;;;;;;5085852;27;20138;-56
2021/08/22 11:20:43;;;;;;;10.88;7.95;;;19.20;99.90;;;;;;5135137;27;20172;-56
2021/08/22 11:23:21;;;;;;;9.57;7.97;;;19.30;99.90;;;;;;5134979;27;20035;-56
2021/08/22 11:25:51;;;;;;;8.43;7.53;;;19.50;99.90;;;;;;5134872;27;20039;-57
2021/08/22 11:28:18;;;;;;;7.80;7.00;;;19.50;99.90;;;;;;5134612;27;20076;-56
2021/08/22 11:30:46;;;;;;;7.18;6.28;;;19.40;99.90;;;;;;5135023;27;20134;-56
2021/08/22 11:33:13;;;;;;;7.15;6.40;;;19.50;99.90;;;;;;5134783;27;20039;-56
2021/08/22 11:35:47;;;;;;;7.63;6.75;;;19.60;99.90;;;;;;5134630;27;20046;-57
2021/08/22 11:38:14;;;;;;;9.55;6.45;;;19.60;99.90;;;;;;5134573;27;20043;-57
2021/08/22 11:40:40;;;;;;;8.70;7.28;;;19.50;99.90;;;;;;5134610;27;20035;-57
2021/08/22 11:43:08;;;;;;;10.52;5.95;;;19.40;99.90;;;;;;5134573;27;20417;-56
2021/08/22 11:45:41;;;;;;;5.60;4.80;;;19.30;99.90;;;;;;5134660;27;20423;-57
2021/08/22 11:48:13;;;;;;;7.47;5.43;;;19.20;99.90;;;;;;5134846;27;20045;-57
2021/08/22 11:50:40;;;;;;;6.60;5.90;;;19.00;99.90;;;;;;5134422;27;20035;-57
2021/08/22 11:53:07;;;;;;;6.00;5.38;;;19.10;99.90;;;;;;5134355;27;20039;-56
2021/08/22 11:55:40;;;;;;;6.85;5.90;;;19.00;99.90;;;;;;5134404;27;20046;-56
2021/08/22 11:58:18;;;;;;;8.10;5.55;;;19.00;99.90;;;;;;5134275;27;20122;-57
2021/08/22 12:00:46;;;;;;;6.03;5.43;;;19.00;99.90;;;;;;5134324;27;20451;-57
2021/08/22 12:03:16;;;;;;;6.25;4.95;;;19.10;99.90;;;;;;5134261;27;20047;-56
2021/08/22 12:05:55;;;;;;;6.10;5.50;;;19.00;99.90;;;;;;5133849;27;20045;-57
2021/08/22 12:08:22;;;;;;;8.40;4.45;;;19.00;99.90;;;;;;5134179;27;20043;-56
2021/08/22 12:10:48;;;;;;;5.55;4.40;;;19.10;99.90;;;;;;5134099;27;20046;-57
2021/08/22 12:13:19;;;;;;;4.20;3.80;;;19.10;99.90;;;;;;5134036;27;20133;-56
2021/08/22 12:15:47;;;;;;;4.40;4.00;;;19.20;99.90;;;;;;5133889;27;20477;-56
2021/08/22 12:18:28;;;;;;;4.68;4.10;;;19.20;99.90;;;;;;5134111;27;20046;-56
2021/08/22 12:21:15;;;;;;;6.53;4.57;;;19.30;99.90;;;;;;5133807;27;20046;-56
2021/08/22 12:23:42;;;;;;;4.30;3.90;;;19.40;99.90;;;;;;5133816;27;20077;-56
2021/08/22 12:26:27;;;;;;;5.00;3.92;;;19.40;99.90;;;;;;5133716;27;20043;-56
2021/08/22 12:29:14;;;;;;;5.25;4.80;;;19.40;99.90;;;;;;5114798;27;20187;-57
2021/08/22 12:31:42;;;;;;;4.10;3.70;;;19.50;99.90;;;;;;5133789;27;20039;-57
2021/08/22 12:34:08;;;;;;;7.85;4.32;;;19.50;99.90;;;;;;5133458;27;20043;-56
2021/08/22 12:36:39;;;;;;;5.00;3.42;;;19.50;99.90;;;;;;5133593;27;20168;-56
2021/08/22 12:39:07;;;;;;;3.65;3.35;;;19.50;99.90;;;;;;5133279;27;20403;-57
2021/08/22 12:41:49;;;;;;;4.35;3.95;;;19.50;99.90;;;;;;5133470;27;20035;-56
2021/08/22 12:44:16;;;;;;;2.78;2.50;;;19.60;99.90;;;;;;5133595;27;20082;-56
2021/08/22 12:46:43;;;;;;;3.33;3.03;;;19.60;99.90;;;;;;5133207;27;20043;-56
2021/08/22 12:49:09;;;;;;;3.63;3.33;;;19.70;99.90;;;;;;5133231;27;20053;-57
2021/08/22 12:51:37;;;;;;;3.25;2.95;;;19.70;99.90;;;;;;5132571;27;20071;-56